Selma, Alabama
Current Conditions -  °F | °C
As of 2:15 PM on Sunday 25 Jan 2015 (Local Time) from K1A9 Reporting Station
Clear Clear  
Wind Chill: 63°   Ceiling: Unl
Heat Index: 63°   Visibility: 10mi
Dew Point: 34°   Wind: 9mph
Humidity: 33%   Direction: 200°SSW
Pressure: 29.78"   Gusts: 20mph
Location:  32.41°N, 87.02°W
Report Text: K1A9 252015Z AUTO 20008G17KT 10SM CLR 17/01 A2978 RMK AO2 T01730010
Loading
Personal Weather Stations






























Interactive Weather Map New forecast layout! Learn more

10-Day Weather Forecast

Advertisements
Track Severe Weather on mobile